Time;durP1;ratioP1;P1;durP2;ratioP2;P2;SDS_P1;SDS_P2;PMS_P1;PMS_P2;Temp;Humidity;BMP_temperature;BMP_pressure;BME280_temperature;BME280_humidity;BME280_pressure;Samples;Min_cycle;Max_cycle;Signal;HPM_P1;HPM_P2
2023/09/23 00:00:04;;;;;;;4.10;1.88;;;13.70;99.90;;;;;;5057907;28;20032;-80
2023/09/23 00:02:31;;;;;;;5.40;1.73;;;13.70;99.90;;;;;;5067928;28;20040;-80
2023/09/23 00:04:57;;;;;;;2.72;1.27;;;13.70;99.90;;;;;;5070668;28;20036;-80
2023/09/23 00:07:22;;;;;;;2.45;1.20;;;13.70;99.90;;;;;;5071348;28;20052;-80
2023/09/23 00:09:48;;;;;;;2.75;0.95;;;13.60;99.90;;;;;;5054648;28;20068;-80
2023/09/23 00:12:15;;;;;;;4.15;1.05;;;13.60;99.90;;;;;;5070728;28;20044;-80
2023/09/23 00:14:41;;;;;;;3.22;1.10;;;13.60;99.90;;;;;;5073934;28;20048;-79
2023/09/23 00:17:07;;;;;;;3.00;1.10;;;13.70;99.90;;;;;;5057840;28;20481;-79
2023/09/23 00:19:34;;;;;;;4.35;1.20;;;13.70;99.90;;;;;;5057065;28;20098;-79
2023/09/23 00:22:01;;;;;;;3.13;0.98;;;13.70;99.90;;;;;;5074482;28;20036;-79
2023/09/23 00:24:27;;;;;;;1.52;0.75;;;13.70;99.90;;;;;;5073592;28;20037;-79
2023/09/23 00:26:58;;;;;;;2.70;0.93;;;13.70;99.90;;;;;;5074353;28;20037;-79
2023/09/23 00:29:26;;;;;;;2.60;0.85;;;13.60;99.90;;;;;;5073759;28;20045;-79
2023/09/23 00:31:54;;;;;;;3.60;0.93;;;13.70;99.90;;;;;;5074618;28;20056;-79
2023/09/23 00:34:20;;;;;;;1.88;0.90;;;13.70;99.90;;;;;;5056727;28;20045;-79
2023/09/23 00:36:45;;;;;;;1.55;0.88;;;13.70;99.90;;;;;;5074094;28;20374;-79
2023/09/23 00:39:11;;;;;;;1.05;0.70;;;13.70;99.90;;;;;;5069909;28;20032;-79
2023/09/23 00:41:36;;;;;;;1.92;0.90;;;13.60;99.90;;;;;;5073890;28;20501;-79
2023/09/23 00:44:03;;;;;;;2.90;0.95;;;13.60;99.90;;;;;;5074042;28;20072;-79
2023/09/23 00:46:28;;;;;;;4.55;0.98;;;13.60;99.90;;;;;;5057414;28;20393;-78
2023/09/23 00:48:54;;;;;;;2.28;0.90;;;13.60;99.90;;;;;;5056901;28;20032;-78
2023/09/23 00:51:21;;;;;;;2.78;1.00;;;13.60;99.90;;;;;;5061800;28;20515;-78
2023/09/23 00:53:47;;;;;;;1.45;0.70;;;13.60;99.90;;;;;;5068173;28;20504;-78
2023/09/23 00:56:15;;;;;;;1.42;0.88;;;13.60;99.90;;;;;;5059523;28;20416;-77
2023/09/23 00:58:42;;;;;;;2.25;0.80;;;13.60;99.90;;;;;;5059086;28;20063;-79
2023/09/23 01:01:08;;;;;;;3.83;1.10;;;13.50;99.90;;;;;;5056502;28;20398;-78
2023/09/23 01:03:38;;;;;;;1.60;0.75;;;13.50;99.90;;;;;;5050457;28;20171;-79
2023/09/23 01:06:16;;;;;;;2.22;0.90;;;13.60;99.90;;;;;;5082840;28;20052;-79
2023/09/23 01:08:45;;;;;;;2.38;1.00;;;13.60;99.90;;;;;;5072846;28;20036;-79
2023/09/23 01:11:12;;;;;;;2.03;0.70;;;13.50;99.90;;;;;;5056285;28;20115;-79
2023/09/23 01:13:38;;;;;;;3.45;0.90;;;13.50;99.90;;;;;;5057021;28;20381;-79
2023/09/23 01:16:09;;;;;;;1.83;0.80;;;13.40;99.90;;;;;;5056707;28;20124;-79
2023/09/23 01:18:35;;;;;;;2.58;0.70;;;13.40;99.90;;;;;;5069342;28;20032;-79
2023/09/23 01:21:02;;;;;;;2.03;0.70;;;13.40;99.90;;;;;;5071882;28;20511;-79
2023/09/23 01:23:27;;;;;;;1.88;0.77;;;13.50;99.90;;;;;;5056597;28;20044;-80
2023/09/23 01:25:53;;;;;;;2.88;0.88;;;13.50;99.90;;;;;;5071929;28;20036;-79
2023/09/23 01:28:19;;;;;;;1.95;0.75;;;13.40;99.90;;;;;;5055019;28;20499;-80
2023/09/23 01:30:45;;;;;;;1.83;0.80;;;13.40;99.90;;;;;;5055845;28;20036;-79
2023/09/23 01:33:12;;;;;;;1.95;0.70;;;13.40;99.90;;;;;;5054741;28;20050;-79
2023/09/23 01:35:38;;;;;;;2.10;0.90;;;13.40;99.90;;;;;;5056943;28;20127;-78
2023/09/23 01:38:04;;;;;;;1.50;0.80;;;13.40;99.90;;;;;;5072032;28;20060;-78
2023/09/23 01:40:31;;;;;;;2.42;0.80;;;13.40;99.90;;;;;;5055402;28;20173;-80
2023/09/23 01:43:01;;;;;;;2.60;0.80;;;13.40;99.90;;;;;;5054312;28;20054;-79
2023/09/23 01:45:28;;;;;;;1.85;0.85;;;13.40;99.90;;;;;;5072080;28;20531;-79
2023/09/23 01:47:56;;;;;;;4.03;0.98;;;13.40;99.90;;;;;;5071407;28;20040;-79
2023/09/23 01:50:26;;;;;;;3.00;0.80;;;13.30;99.90;;;;;;5072038;28;20456;-79
2023/09/23 01:52:52;;;;;;;1.40;0.82;;;13.40;99.90;;;;;;5072711;28;20051;-79
2023/09/23 01:55:18;;;;;;;2.72;0.80;;;13.40;99.90;;;;;;5072857;28;20048;-79
2023/09/23 01:57:47;;;;;;;2.47;0.80;;;13.40;99.90;;;;;;5071751;28;20467;-79
2023/09/23 02:00:25;;;;;;;1.38;0.80;;;13.40;99.90;;;;;;5070742;28;20036;-79
2023/09/23 02:02:55;;;;;;;1.83;0.90;;;13.40;99.90;;;;;;5071990;28;20389;-79
2023/09/23 02:05:22;;;;;;;3.90;1.05;;;13.40;99.90;;;;;;5054122;28;20036;-80
2023/09/23 02:07:50;;;;;;;1.92;0.80;;;13.30;99.90;;;;;;5071709;28;20086;-79
2023/09/23 02:10:17;;;;;;;3.13;1.02;;;13.30;99.90;;;;;;5071020;28;20036;-79
2023/09/23 02:12:42;;;;;;;1.58;0.80;;;13.40;99.90;;;;;;5068271;28;20045;-79
2023/09/23 02:15:09;;;;;;;2.67;1.00;;;13.40;99.90;;;;;;5071964;28;20044;-79
2023/09/23 02:17:36;;;;;;;2.30;1.02;;;13.40;99.90;;;;;;5087996;28;20036;-79
2023/09/23 02:20:11;;;;;;;3.55;1.30;;;13.30;99.90;;;;;;5070707;28;20044;-80
2023/09/23 02:22:37;;;;;;;4.18;1.70;;;13.30;99.90;;;;;;5054969;28;20040;-80
2023/09/23 02:25:04;;;;;;;3.58;1.73;;;13.40;99.90;;;;;;5071410;28;20405;-80
2023/09/23 02:27:30;;;;;;;4.85;1.80;;;13.50;99.90;;;;;;5071196;28;20503;-79
2023/09/23 02:29:55;;;;;;;4.47;2.20;;;13.40;99.90;;;;;;5071722;28;20125;-79
2023/09/23 02:32:21;;;;;;;5.03;2.70;;;13.40;99.90;;;;;;5054004;28;20477;-79
2023/09/23 02:34:46;;;;;;;5.57;2.83;;;13.50;99.90;;;;;;5054579;28;20040;-79
2023/09/23 02:37:12;;;;;;;5.22;2.25;;;13.40;99.90;;;;;;5071275;28;20040;-79
2023/09/23 02:39:38;;;;;;;5.32;2.60;;;13.40;99.90;;;;;;5071076;28;20043;-80
2023/09/23 02:42:05;;;;;;;4.80;2.55;;;13.40;99.90;;;;;;5071052;28;20040;-80
2023/09/23 02:44:31;;;;;;;4.35;2.33;;;13.40;99.90;;;;;;5052133;28;20408;-79
2023/09/23 02:46:56;;;;;;;4.30;2.67;;;13.40;99.90;;;;;;5063351;28;20119;-79
2023/09/23 02:49:22;;;;;;;7.15;2.60;;;13.40;99.90;;;;;;5070458;28;20040;-79
2023/09/23 02:51:49;;;;;;;4.88;2.40;;;13.30;99.90;;;;;;5086552;28;20115;-80
2023/09/23 02:54:17;;;;;;;5.25;2.80;;;13.30;99.90;;;;;;5054375;28;20082;-79
2023/09/23 02:56:46;;;;;;;5.82;2.55;;;13.30;99.90;;;;;;5068028;28;20534;-79
2023/09/23 02:59:15;;;;;;;4.30;2.40;;;13.20;99.90;;;;;;5070571;28;20052;-79
2023/09/23 03:01:45;;;;;;;6.05;2.58;;;13.20;99.90;;;;;;5071103;28;20115;-79
2023/09/23 03:04:23;;;;;;;4.10;2.50;;;13.20;99.90;;;;;;5071544;28;20028;-79
2023/09/23 03:06:53;;;;;;;4.00;2.00;;;13.20;99.90;;;;;;5054189;28;20476;-80
2023/09/23 03:09:20;;;;;;;4.78;2.40;;;13.10;99.90;;;;;;5054315;28;20051;-79
2023/09/23 03:11:53;;;;;;;6.63;2.80;;;13.10;99.90;;;;;;5054519;28;20551;-79
2023/09/23 03:14:36;;;;;;;4.60;2.42;;;13.10;99.90;;;;;;5070322;28;20123;-79
2023/09/23 03:17:03;;;;;;;4.47;2.42;;;13.20;99.90;;;;;;5069931;28;20049;-79
2023/09/23 03:19:28;;;;;;;5.55;2.80;;;13.20;99.90;;;;;;5057572;28;20033;-80
2023/09/23 03:21:56;;;;;;;4.78;2.60;;;13.10;99.90;;;;;;5074044;28;20112;-80
2023/09/23 03:24:22;;;;;;;5.18;2.55;;;13.10;99.90;;;;;;5075011;28;20086;-79
2023/09/23 03:26:50;;;;;;;5.10;2.70;;;13.10;99.90;;;;;;5057686;28;20401;-80
2023/09/23 03:29:17;;;;;;;6.68;2.60;;;13.10;99.90;;;;;;5073859;28;20041;-80
2023/09/23 03:31:44;;;;;;;6.63;2.80;;;13.10;99.90;;;;;;5057487;28;20040;-79
2023/09/23 03:34:13;;;;;;;6.88;2.88;;;13.00;99.90;;;;;;5074633;28;20045;-79
2023/09/23 03:36:39;;;;;;;7.97;2.78;;;13.00;99.90;;;;;;5055697;28;20049;-79
2023/09/23 03:39:05;;;;;;;5.60;3.08;;;12.90;99.90;;;;;;5071324;28;20041;-79
2023/09/23 03:41:33;;;;;;;6.50;3.03;;;12.90;99.90;;;;;;5070176;28;20059;-80
2023/09/23 03:43:58;;;;;;;5.38;2.92;;;12.90;99.90;;;;;;5055998;28;20123;-79
2023/09/23 03:46:24;;;;;;;5.60;3.10;;;12.90;99.90;;;;;;5074418;28;20075;-79
2023/09/23 03:48:50;;;;;;;6.65;3.53;;;12.90;99.90;;;;;;5057900;28;20044;-79
2023/09/23 03:51:16;;;;;;;5.55;3.20;;;12.80;99.90;;;;;;5075023;28;20076;-79
2023/09/23 03:53:45;;;;;;;5.60;3.25;;;12.80;99.90;;;;;;5056830;28;20036;-79
2023/09/23 03:56:10;;;;;;;6.22;3.03;;;12.80;99.90;;;;;;5069837;28;20378;-79
2023/09/23 03:58:38;;;;;;;6.63;3.78;;;12.70;99.90;;;;;;5072806;28;20044;-79
2023/09/23 04:01:08;;;;;;;6.32;3.53;;;12.70;99.90;;;;;;5057657;28;20039;-79
2023/09/23 04:03:34;;;;;;;6.57;3.80;;;12.80;99.90;;;;;;5073508;28;20412;-79
2023/09/23 04:06:00;;;;;;;7.38;4.13;;;12.70;99.90;;;;;;5057473;28;20036;-79
2023/09/23 04:08:27;;;;;;;7.10;3.65;;;12.70;99.90;;;;;;5072708;28;20045;-79
2023/09/23 04:10:53;;;;;;;8.55;3.90;;;12.70;99.90;;;;;;5088580;28;20036;-79
2023/09/23 04:13:19;;;;;;;8.25;4.03;;;12.60;99.90;;;;;;5074700;28;20098;-79
2023/09/23 04:15:44;;;;;;;6.18;3.60;;;12.60;99.90;;;;;;5076472;28;20047;-79
2023/09/23 04:18:11;;;;;;;6.68;3.92;;;12.60;99.90;;;;;;5072900;28;20112;-79
2023/09/23 04:20:36;;;;;;;7.90;4.43;;;12.60;99.90;;;;;;5056833;28;20041;-79
2023/09/23 04:23:03;;;;;;;6.95;3.90;;;12.60;99.90;;;;;;5074475;28;20051;-79
2023/09/23 04:25:29;;;;;;;7.00;4.10;;;12.70;99.90;;;;;;5055987;28;20414;-79
2023/09/23 04:27:55;;;;;;;7.28;4.10;;;12.60;99.90;;;;;;5055930;28;20040;-79
2023/09/23 04:30:21;;;;;;;8.50;4.68;;;12.60;99.90;;;;;;5073730;28;20036;-79
2023/09/23 04:32:47;;;;;;;7.18;4.18;;;12.60;99.90;;;;;;5057194;28;20409;-79
2023/09/23 04:35:14;;;;;;;9.43;5.38;;;12.60;99.90;;;;;;5055426;28;20032;-79
2023/09/23 04:37:39;;;;;;;7.70;4.85;;;12.60;99.90;;;;;;5073070;28;20044;-79
2023/09/23 04:40:10;;;;;;;9.70;4.88;;;12.50;99.90;;;;;;5056618;28;20032;-79
2023/09/23 04:42:40;;;;;;;8.80;5.28;;;12.50;99.90;;;;;;5057515;28;20047;-79
2023/09/23 04:45:07;;;;;;;8.25;5.70;;;12.50;99.90;;;;;;5058613;28;20136;-79
2023/09/23 04:47:35;;;;;;;7.40;4.72;;;12.40;99.90;;;;;;5073950;28;20488;-79
2023/09/23 04:50:01;;;;;;;7.35;5.03;;;12.40;99.90;;;;;;5074263;28;20041;-79
2023/09/23 04:52:27;;;;;;;8.65;5.30;;;12.40;99.90;;;;;;5073949;28;20488;-79
2023/09/23 04:54:54;;;;;;;9.32;5.38;;;12.30;99.90;;;;;;5073867;28;20075;-79
2023/09/23 04:57:20;;;;;;;8.23;5.22;;;12.40;99.90;;;;;;5090575;28;20056;-79
2023/09/23 04:59:46;;;;;;;8.50;5.80;;;12.30;99.90;;;;;;5073699;28;20036;-80
2023/09/23 05:02:16;;;;;;;9.20;5.40;;;12.30;99.90;;;;;;5061524;28;20399;-79
2023/09/23 05:04:44;;;;;;;9.43;5.50;;;12.20;99.90;;;;;;5076945;28;20042;-79
2023/09/23 05:07:11;;;;;;;8.82;5.47;;;12.30;99.90;;;;;;5076934;28;20043;-79
2023/09/23 05:09:37;;;;;;;7.40;4.78;;;12.30;99.90;;;;;;5076835;28;20504;-79
2023/09/23 05:12:03;;;;;;;8.50;4.90;;;12.30;99.90;;;;;;5094006;28;20040;-79
2023/09/23 05:14:28;;;;;;;7.93;5.35;;;12.30;99.90;;;;;;5076793;28;20150;-79
2023/09/23 05:16:54;;;;;;;7.90;4.68;;;12.30;99.90;;;;;;5093630;28;20032;-79
2023/09/23 05:19:19;;;;;;;10.50;5.70;;;12.20;99.90;;;;;;5092629;28;20076;-79
2023/09/23 05:21:50;;;;;;;8.20;5.25;;;12.20;99.90;;;;;;5093650;28;20036;-79
2023/09/23 05:24:15;;;;;;;7.88;5.20;;;12.30;99.90;;;;;;5093813;28;20108;-79
2023/09/23 05:26:41;;;;;;;8.30;4.95;;;12.30;99.90;;;;;;5093696;28;20484;-79
2023/09/23 05:29:08;;;;;;;8.98;5.65;;;12.20;99.90;;;;;;5093565;28;21207;-79
2023/09/23 05:31:36;;;;;;;7.22;5.05;;;12.30;99.90;;;;;;5093374;28;20039;-79
2023/09/23 05:34:02;;;;;;;8.90;5.60;;;12.30;99.90;;;;;;5072394;28;20083;-79
2023/09/23 05:36:28;;;;;;;8.75;5.20;;;12.30;99.90;;;;;;5069455;28;20174;-79
2023/09/23 05:38:53;;;;;;;9.82;5.30;;;12.30;99.90;;;;;;5055895;28;20484;-79
2023/09/23 05:41:24;;;;;;;8.18;5.15;;;12.30;99.90;;;;;;5071207;28;20037;-79
2023/09/23 05:43:51;;;;;;;9.27;5.20;;;12.30;99.90;;;;;;5055919;28;20039;-79
2023/09/23 05:46:18;;;;;;;8.55;5.60;;;12.30;99.90;;;;;;5055584;28;20041;-79
2023/09/23 05:48:44;;;;;;;8.35;5.72;;;12.30;99.90;;;;;;5072360;28;20052;-79
2023/09/23 05:51:10;;;;;;;9.70;6.32;;;12.30;99.90;;;;;;5072070;28;20493;-78
2023/09/23 05:53:35;;;;;;;11.23;6.32;;;12.30;99.90;;;;;;5063421;28;20563;-78
2023/09/23 05:56:01;;;;;;;9.55;6.28;;;12.30;99.90;;;;;;5071506;28;20508;-78
2023/09/23 05:58:27;;;;;;;8.95;6.25;;;12.30;99.90;;;;;;5055156;28;20044;-78
2023/09/23 06:00:52;;;;;;;10.32;7.00;;;12.30;99.90;;;;;;5055405;28;20036;-78
2023/09/23 06:03:18;;;;;;;11.77;6.97;;;12.30;99.90;;;;;;5071877;28;20064;-78
2023/09/23 06:05:44;;;;;;;11.75;7.50;;;12.30;99.90;;;;;;5071632;28;20048;-78
2023/09/23 06:08:12;;;;;;;12.88;7.85;;;12.30;99.90;;;;;;5071586;28;20039;-79
2023/09/23 06:10:39;;;;;;;13.30;8.70;;;12.30;99.90;;;;;;5071553;28;20546;-79
2023/09/23 06:13:05;;;;;;;13.15;9.05;;;12.30;99.90;;;;;;5055054;28;20127;-78
2023/09/23 06:15:32;;;;;;;15.20;9.52;;;12.30;99.90;;;;;;5071267;28;20093;-78
2023/09/23 06:17:57;;;;;;;13.48;9.38;;;12.30;99.90;;;;;;5065868;28;20036;-78
2023/09/23 06:20:23;;;;;;;16.30;10.48;;;12.30;99.90;;;;;;5055433;28;20046;-78
2023/09/23 06:22:48;;;;;;;15.55;10.55;;;12.40;99.90;;;;;;5070988;28;20059;-78
2023/09/23 06:25:14;;;;;;;17.50;11.93;;;12.40;99.90;;;;;;5054112;28;20040;-78
2023/09/23 06:27:39;;;;;;;17.02;11.10;;;12.40;99.90;;;;;;5071273;28;20041;-78
2023/09/23 06:30:06;;;;;;;17.00;12.32;;;12.40;99.90;;;;;;5054772;28;20412;-78
2023/09/23 06:32:35;;;;;;;17.02;12.10;;;12.40;99.90;;;;;;5054252;28;20036;-78
2023/09/23 06:35:03;;;;;;;19.20;13.45;;;12.40;99.90;;;;;;5059252;28;20041;-78
2023/09/23 06:37:30;;;;;;;18.73;13.13;;;12.40;99.90;;;;;;5053620;28;20032;-79
2023/09/23 06:39:56;;;;;;;20.60;12.15;;;12.40;99.90;;;;;;5054337;28;20518;-78
2023/09/23 06:42:22;;;;;;;22.10;14.05;;;12.40;99.90;;;;;;5054479;28;20032;-78
2023/09/23 06:44:48;;;;;;;19.13;13.60;;;12.40;99.90;;;;;;5087670;28;20044;-78
2023/09/23 06:47:13;;;;;;;17.20;12.68;;;12.40;99.90;;;;;;5071222;28;20032;-78
2023/09/23 06:49:39;;;;;;;18.80;13.15;;;12.50;99.90;;;;;;5054319;28;20125;-78
2023/09/23 06:52:05;;;;;;;19.00;14.10;;;12.50;99.90;;;;;;5054448;28;20044;-78
2023/09/23 06:54:31;;;;;;;18.98;13.68;;;12.50;99.90;;;;;;5054005;28;20124;-78
2023/09/23 06:56:57;;;;;;;17.60;13.77;;;12.50;99.90;;;;;;5071758;28;20519;-78
2023/09/23 06:59:23;;;;;;;18.88;13.88;;;12.60;99.90;;;;;;5053548;28;20099;-79
2023/09/23 07:01:48;;;;;;;19.80;14.20;;;12.60;99.90;;;;;;5054296;28;20040;-79
2023/09/23 07:04:14;;;;;;;17.95;14.48;;;12.60;99.90;;;;;;5070727;28;20036;-79
2023/09/23 07:06:40;;;;;;;17.25;12.88;;;12.60;99.90;;;;;;5071653;28;20045;-78
2023/09/23 07:09:05;;;;;;;18.48;13.20;;;12.70;99.90;;;;;;5054447;28;20075;-79
2023/09/23 07:11:32;;;;;;;21.90;13.57;;;12.80;99.90;;;;;;5053386;28;20044;-78
2023/09/23 07:14:00;;;;;;;19.23;14.43;;;12.80;99.90;;;;;;5070804;28;20039;-79
2023/09/23 07:16:26;;;;;;;19.63;14.55;;;12.80;99.90;;;;;;5053787;28;20500;-79
2023/09/23 07:18:52;;;;;;;20.25;14.25;;;12.80;99.90;;;;;;5052753;28;20033;-79
2023/09/23 07:21:18;;;;;;;18.92;13.77;;;12.80;99.90;;;;;;5044173;28;20099;-78
2023/09/23 07:23:43;;;;;;;19.10;14.15;;;12.80;99.90;;;;;;5062395;28;20047;-79
2023/09/23 07:26:09;;;;;;;18.20;13.30;;;12.80;99.90;;;;;;5050890;28;20089;-79
2023/09/23 07:28:35;;;;;;;18.25;14.32;;;12.80;99.90;;;;;;5053023;28;20098;-79
2023/09/23 07:31:01;;;;;;;18.70;14.00;;;12.90;99.90;;;;;;5053238;28;20033;-79
2023/09/23 07:33:27;;;;;;;17.40;13.32;;;12.90;99.90;;;;;;5053388;28;20481;-79
2023/09/23 07:35:53;;;;;;;18.10;13.65;;;12.90;99.90;;;;;;5054014;28;20511;-79
2023/09/23 07:38:19;;;;;;;17.33;13.32;;;13.00;99.90;;;;;;5068091;28;20520;-79
2023/09/23 07:40:44;;;;;;;18.17;13.85;;;12.90;99.90;;;;;;5053252;28;20039;-79
2023/09/23 07:43:10;;;;;;;18.23;13.43;;;13.00;99.90;;;;;;5054135;28;20036;-79
2023/09/23 07:45:36;;;;;;;18.05;13.05;;;13.10;99.90;;;;;;5051072;28;20063;-79
2023/09/23 07:48:02;;;;;;;18.88;13.73;;;13.10;99.90;;;;;;5070212;28;20094;-79
2023/09/23 07:50:28;;;;;;;19.02;13.23;;;13.20;99.90;;;;;;5050523;28;20044;-79
2023/09/23 07:52:53;;;;;;;17.73;12.95;;;13.20;99.90;;;;;;5058956;28;20493;-79
2023/09/23 07:55:19;;;;;;;17.33;13.18;;;13.30;99.90;;;;;;5051605;28;20056;-79
2023/09/23 07:57:44;;;;;;;17.45;13.50;;;13.40;99.90;;;;;;5051468;28;20037;-79
2023/09/23 08:00:11;;;;;;;17.77;13.00;;;13.40;99.90;;;;;;5050289;28;20095;-79
2023/09/23 08:02:37;;;;;;;18.30;14.00;;;13.50;99.90;;;;;;5068494;28;20397;-80
2023/09/23 08:05:03;;;;;;;16.80;12.55;;;13.60;99.90;;;;;;5072917;28;20124;-79
2023/09/23 08:07:30;;;;;;;18.40;14.45;;;13.70;99.90;;;;;;5073334;28;20066;-80
2023/09/23 08:09:56;;;;;;;17.30;12.57;;;13.80;99.90;;;;;;5074437;28;20033;-80
2023/09/23 08:12:22;;;;;;;17.65;12.65;;;13.80;99.90;;;;;;5047610;28;20042;-79
2023/09/23 08:14:48;;;;;;;15.65;11.45;;;13.80;99.90;;;;;;5071916;28;20039;-80
2023/09/23 08:17:14;;;;;;;17.60;13.18;;;13.80;99.90;;;;;;5074143;28;20032;-80
2023/09/23 08:19:40;;;;;;;17.70;12.85;;;13.90;99.90;;;;;;5050459;28;20393;-79
2023/09/23 08:22:06;;;;;;;16.42;11.95;;;13.80;99.90;;;;;;5053362;28;20040;-80
2023/09/23 08:24:32;;;;;;;15.40;11.70;;;13.90;99.90;;;;;;5056166;28;20084;-80
2023/09/23 08:26:58;;;;;;;16.08;11.52;;;14.00;99.90;;;;;;5072664;28;20043;-80
2023/09/23 08:29:24;;;;;;;16.42;10.65;;;14.00;99.90;;;;;;5059925;28;20489;-80
2023/09/23 08:31:50;;;;;;;16.42;11.02;;;14.00;99.90;;;;;;5057267;28;20409;-80
2023/09/23 08:34:17;;;;;;;16.23;12.00;;;14.10;99.90;;;;;;5070862;28;20041;-80
2023/09/23 08:36:43;;;;;;;15.50;11.10;;;14.20;99.90;;;;;;5056933;28;20047;-80
2023/09/23 08:39:09;;;;;;;14.10;10.35;;;14.20;99.90;;;;;;5056630;28;20121;-80
2023/09/23 08:41:36;;;;;;;15.30;10.82;;;14.40;99.90;;;;;;5072748;28;20128;-80
2023/09/23 08:44:05;;;;;;;13.02;10.27;;;14.50;99.90;;;;;;5072802;28;20055;-80
2023/09/23 08:46:32;;;;;;;15.02;9.95;;;14.60;99.90;;;;;;5053747;28;20123;-80
2023/09/23 08:49:01;;;;;;;13.05;9.32;;;14.80;99.90;;;;;;5083268;28;20040;-80
2023/09/23 08:51:30;;;;;;;12.20;8.80;;;14.80;99.90;;;;;;5055615;28;20497;-80
2023/09/23 08:53:55;;;;;;;12.98;9.55;;;14.90;99.90;;;;;;5071876;28;20041;-80
2023/09/23 08:56:21;;;;;;;11.98;9.10;;;14.80;99.90;;;;;;5056323;28;20059;-80
2023/09/23 08:58:49;;;;;;;12.43;8.70;;;14.80;99.90;;;;;;5054892;28;20041;-80
2023/09/23 09:01:16;;;;;;;14.60;8.68;;;14.90;99.90;;;;;;5055364;28;20404;-80
2023/09/23 09:03:43;;;;;;;16.02;10.07;;;14.90;99.90;;;;;;5042371;28;20047;-80
2023/09/23 09:06:16;;;;;;;14.00;10.02;;;14.90;99.90;;;;;;5073342;28;20405;-80
2023/09/23 09:08:42;;;;;;;14.80;8.65;;;15.00;99.90;;;;;;5056009;28;20041;-80
2023/09/23 09:11:09;;;;;;;13.68;8.75;;;15.00;99.90;;;;;;5073036;28;20048;-80
2023/09/23 09:13:36;;;;;;;12.52;8.55;;;15.10;99.90;;;;;;5051816;28;20416;-80
2023/09/23 09:16:07;;;;;;;14.23;9.32;;;15.10;99.90;;;;;;5072129;28;20089;-80
2023/09/23 09:18:33;;;;;;;11.27;8.45;;;15.10;99.90;;;;;;5065436;28;20037;-80
2023/09/23 09:20:59;;;;;;;13.82;8.82;;;15.00;99.90;;;;;;5054333;28;20127;-80
2023/09/23 09:23:32;;;;;;;14.07;9.00;;;15.00;99.90;;;;;;5055010;28;20504;-80
2023/09/23 09:25:58;;;;;;;11.57;8.35;;;15.10;99.90;;;;;;5072804;28;20041;-81
2023/09/23 09:28:24;;;;;;;13.32;9.00;;;15.20;99.90;;;;;;5070763;28;20040;-80
2023/09/23 09:30:59;;;;;;;12.63;8.55;;;15.30;99.90;;;;;;5059040;28;20052;-81
2023/09/23 09:33:26;;;;;;;11.82;8.73;;;15.30;99.90;;;;;;5055464;28;20063;-80
2023/09/23 09:35:55;;;;;;;12.25;8.38;;;15.20;99.90;;;;;;5068830;28;20052;-80
2023/09/23 09:38:25;;;;;;;10.95;7.78;;;15.10;99.90;;;;;;5072752;28;20115;-80
2023/09/23 09:41:00;;;;;;;12.20;7.75;;;15.20;99.90;;;;;;5065416;28;20040;-80
2023/09/23 09:43:26;;;;;;;13.23;7.68;;;15.40;99.90;;;;;;5071560;28;20068;-80
2023/09/23 09:45:54;;;;;;;11.80;8.38;;;15.40;99.90;;;;;;5072328;28;20037;-81
2023/09/23 09:48:22;;;;;;;9.35;6.93;;;15.40;99.90;;;;;;5055001;28;20072;-81
2023/09/23 09:50:50;;;;;;;10.63;6.60;;;15.40;99.90;;;;;;5071336;28;20511;-80
2023/09/23 09:53:18;;;;;;;8.77;5.88;;;15.50;99.90;;;;;;5062088;28;20147;-81
2023/09/23 09:55:44;;;;;;;9.38;6.55;;;15.50;99.90;;;;;;5054116;28;20063;-80
2023/09/23 09:58:11;;;;;;;8.48;5.65;;;15.70;99.90;;;;;;5037562;28;20094;-81
2023/09/23 10:00:43;;;;;;;10.10;6.00;;;15.80;99.90;;;;;;5052045;28;20029;-81
2023/09/23 10:03:13;;;;;;;;;;;15.90;99.90;;;;;;5065875;28;20040;-81
2023/09/23 10:05:46;;;;;;;9.27;5.65;;;15.90;99.90;;;;;;5053582;28;19921;-80
2023/09/23 10:08:15;;;;;;;9.98;5.78;;;15.80;99.90;;;;;;5062288;28;20043;-81
2023/09/23 10:10:46;;;;;;;8.18;5.22;;;15.70;99.90;;;;;;5046260;28;20450;-78
2023/09/23 10:13:17;;;;;;;7.97;4.07;;;15.80;99.90;;;;;;5054003;28;20072;-78
2023/09/23 10:15:43;;;;;;;8.88;4.75;;;15.80;99.90;;;;;;5067783;28;20049;-78
2023/09/23 10:18:17;;;;;;;7.82;4.57;;;15.90;99.90;;;;;;5055002;28;20047;-78
2023/09/23 10:20:46;;;;;;;9.13;4.30;;;16.00;99.90;;;;;;5054838;28;20039;-78
2023/09/23 10:23:15;;;;;;;9.85;4.45;;;16.10;99.90;;;;;;5061371;28;20065;-78
2023/09/23 10:25:45;;;;;;;9.85;4.10;;;16.10;99.90;;;;;;5051638;28;20123;-78
2023/09/23 10:28:30;;;;;;;9.45;4.10;;;16.00;99.90;;;;;;5060102;28;20048;-79
2023/09/23 10:31:04;;;;;;;9.68;5.10;;;16.00;99.90;;;;;;5071161;28;20045;-78
2023/09/23 10:33:31;;;;;;;7.85;3.58;;;15.80;99.90;;;;;;5037061;28;20059;-74
2023/09/23 10:35:58;;;;;;;8.77;4.38;;;15.80;99.90;;;;;;5055173;28;20090;-81
2023/09/23 10:38:25;;;;;;;9.65;4.20;;;16.00;99.90;;;;;;5054736;28;20503;-81
2023/09/23 10:40:55;;;;;;;9.25;4.70;;;16.10;99.90;;;;;;5062268;28;20047;-81
2023/09/23 10:43:21;;;;;;;7.07;4.22;;;16.10;99.90;;;;;;5050783;28;20567;-81
2023/09/23 10:45:48;;;;;;;8.27;3.25;;;16.20;99.90;;;;;;5035119;28;20120;-81
2023/09/23 10:48:15;;;;;;;6.50;3.33;;;16.30;99.90;;;;;;5051264;28;20041;-81
2023/09/23 10:50:41;;;;;;;10.10;4.05;;;16.30;99.90;;;;;;5050082;28;20093;-81
2023/09/23 10:53:08;;;;;;;7.45;3.05;;;16.30;99.90;;;;;;5070244;28;20051;-81
2023/09/23 10:55:34;;;;;;;6.97;3.20;;;16.40;99.90;;;;;;5068168;28;20405;-81
2023/09/23 10:58:00;;;;;;;7.80;2.65;;;16.40;99.90;;;;;;5053702;28;20085;-81
2023/09/23 11:00:28;;;;;;;6.28;2.50;;;16.30;99.90;;;;;;5069821;28;20055;-81
2023/09/23 11:02:54;;;;;;;6.28;2.35;;;16.30;99.90;;;;;;5038859;28;20107;-81
2023/09/23 11:05:21;;;;;;;7.97;2.70;;;16.40;99.90;;;;;;5071611;28;20044;-82
2023/09/23 11:07:47;;;;;;;7.15;3.10;;;16.30;99.90;;;;;;5053928;28;20047;-81
2023/09/23 11:10:13;;;;;;;5.55;2.80;;;16.30;99.90;;;;;;5053322;28;20040;-81
2023/09/23 11:12:42;;;;;;;7.35;2.90;;;16.30;99.90;;;;;;5065848;28;20037;-81
2023/09/23 11:15:09;;;;;;;5.20;2.58;;;16.30;99.90;;;;;;5044972;28;20044;-81
2023/09/23 11:17:35;;;;;;;7.70;2.95;;;16.30;99.90;;;;;;5065841;28;20052;-82
2023/09/23 11:20:01;;;;;;;9.43;2.88;;;16.40;99.90;;;;;;5064465;28;20033;-82
2023/09/23 11:22:29;;;;;;;6.88;2.70;;;16.50;99.90;;;;;;5068529;28;20032;-81
2023/09/23 11:24:56;;;;;;;7.05;1.95;;;16.60;99.90;;;;;;5053464;28;20037;-82
2023/09/23 11:27:22;;;;;;;5.80;2.20;;;16.70;99.90;;;;;;5044073;28;20550;-82
2023/09/23 11:29:48;;;;;;;7.50;2.45;;;16.60;99.90;;;;;;5056042;28;20051;-82
2023/09/23 11:32:15;;;;;;;6.47;2.20;;;16.60;99.90;;;;;;5069880;28;20032;-82
2023/09/23 11:34:40;;;;;;;3.95;2.10;;;16.60;99.90;;;;;;5051092;28;20550;-81
2023/09/23 11:37:06;;;;;;;6.30;2.42;;;16.60;99.90;;;;;;5051784;28;20041;-82
2023/09/23 11:39:35;;;;;;;8.25;2.15;;;16.80;99.90;;;;;;5057956;28;20049;-82
2023/09/23 11:42:03;;;;;;;5.45;1.88;;;16.90;99.90;;;;;;5057053;28;20036;-82
2023/09/23 11:44:29;;;;;;;3.92;1.90;;;16.90;99.90;;;;;;5069061;28;20045;-81
2023/09/23 11:46:55;;;;;;;5.38;2.10;;;16.90;99.90;;;;;;5065739;28;20067;-82
2023/09/23 11:49:21;;;;;;;6.65;2.20;;;16.80;99.90;;;;;;5057975;28;20040;-82
2023/09/23 11:51:46;;;;;;;4.85;2.08;;;16.70;99.90;;;;;;5067894;28;20403;-82
2023/09/23 11:54:12;;;;;;;4.45;1.98;;;16.70;99.90;;;;;;5047254;28;20039;-81
2023/09/23 11:56:38;;;;;;;5.18;2.38;;;16.60;99.90;;;;;;5055460;28;20136;-81
2023/09/23 11:59:04;;;;;;;6.40;2.20;;;16.50;99.90;;;;;;5072599;28;20037;-81
2023/09/23 12:01:29;;;;;;;4.78;1.88;;;16.60;99.90;;;;;;5073414;28;20036;-81
2023/09/23 12:03:58;;;;;;;6.53;1.90;;;16.60;99.90;;;;;;5089033;28;20507;-81
2023/09/23 12:06:24;;;;;;;5.35;2.25;;;16.50;99.90;;;;;;5064750;28;20032;-82
2023/09/23 12:08:50;;;;;;;7.38;2.08;;;16.50;99.90;;;;;;5071018;28;20040;-81
2023/09/23 12:11:15;;;;;;;6.22;2.33;;;16.50;99.90;;;;;;5054978;28;20035;-81
2023/09/23 12:13:41;;;;;;;4.97;2.10;;;16.50;99.90;;;;;;5046571;28;20542;-81
2023/09/23 12:16:06;;;;;;;6.63;1.90;;;16.40;99.90;;;;;;5083177;28;20041;-81
2023/09/23 12:18:32;;;;;;;5.57;1.92;;;16.30;99.90;;;;;;5056441;28;20086;-81
2023/09/23 12:20:58;;;;;;;4.32;1.60;;;16.20;99.90;;;;;;5065559;28;20032;-81
2023/09/23 12:23:25;;;;;;;2.72;1.48;;;16.30;99.90;;;;;;5042411;28;20028;-82
2023/09/23 12:25:52;;;;;;;7.43;1.80;;;16.40;99.90;;;;;;5062111;28;20489;-79
2023/09/23 12:28:17;;;;;;;7.70;1.90;;;16.10;99.90;;;;;;5056038;28;20068;-77
2023/09/23 12:30:43;;;;;;;4.45;1.60;;;15.90;99.90;;;;;;5053994;28;20041;-77
2023/09/23 12:33:09;;;;;;;4.72;1.30;;;15.80;99.90;;;;;;5072365;28;20040;-78
2023/09/23 12:35:34;;;;;;;4.07;1.50;;;15.60;99.90;;;;;;5069108;28;20058;-79
2023/09/23 12:38:00;;;;;;;3.25;1.33;;;15.60;99.90;;;;;;5055101;28;20036;-79
2023/09/23 12:40:26;;;;;;;3.50;1.17;;;15.50;99.90;;;;;;5061758;28;20037;-79